createdAt,value
2023-04-30T07:52:24.413Z,365.13
2023-04-30T07:54:26.646Z,32.58
2023-04-30T07:56:48.905Z,28.77
2023-04-30T07:58:50.394Z,23.73
2023-04-30T08:00:51.927Z,23.20
2023-04-30T08:02:53.589Z,22.85
2023-04-30T08:04:55.115Z,23.23
2023-04-30T08:06:56.523Z,22.70
2023-04-30T08:09:00.699Z,21.42
2023-04-30T08:11:02.396Z,21.02
2023-04-30T08:13:04.415Z,19.92
2023-04-30T08:15:08.610Z,19.98
2023-04-30T08:17:28.577Z,19.70
2023-04-30T08:19:32.624Z,18.60
2023-04-30T08:21:34.139Z,18.85
2023-04-30T08:23:36.007Z,19.73
2023-04-30T08:25:43.566Z,18.48
2023-04-30T08:27:45.072Z,20.02
2023-04-30T08:29:46.657Z,17.42
2023-04-30T08:31:48.270Z,16.77
2023-04-30T08:33:49.770Z,16.50
2023-04-30T08:35:54.484Z,16.63
2023-04-30T08:37:58.779Z,14.05
2023-04-30T08:40:04.307Z,15.27
2023-04-30T08:42:31.292Z,14.43
2023-04-30T08:44:51.625Z,14.60
2023-04-30T08:46:53.990Z,15.95
2023-04-30T08:48:58.145Z,14.45
2023-04-30T08:51:01.254Z,15.68
2023-04-30T08:53:06.082Z,15.02
2023-04-30T08:55:11.309Z,15.10
2023-04-30T08:57:31.267Z,15.23
2023-04-30T08:59:32.841Z,15.05
2023-04-30T09:01:37.108Z,14.65
2023-04-30T09:03:39.366Z,14.23
2023-04-30T09:05:43.918Z,16.13
2023-04-30T09:09:54.781Z,13.43
2023-04-30T09:12:18.638Z,14.52
2023-04-30T09:14:24.892Z,12.55
2023-04-30T09:16:27.546Z,13.45
2023-04-30T09:18:30.010Z,13.73
2023-04-30T09:20:31.634Z,12.10
2023-04-30T09:22:36.972Z,12.43
2023-04-30T09:24:49.191Z,12.20
2023-04-30T09:26:53.790Z,12.45
2023-04-30T09:28:57.158Z,12.27
2023-04-30T09:31:21.717Z,12.82
2023-04-30T09:33:25.990Z,13.82
2023-04-30T09:35:30.998Z,12.55
2023-04-30T09:37:39.845Z,12.73
2023-04-30T09:39:48.617Z,12.50
2023-04-30T09:41:54.877Z,11.35
2023-04-30T09:43:57.943Z,11.98
2023-04-30T09:45:59.934Z,12.80
2023-04-30T09:48:25.561Z,11.15
2023-04-30T09:50:38.095Z,11.63
2023-04-30T09:52:40.180Z,12.07
2023-04-30T09:54:45.336Z,12.48
2023-04-30T09:56:49.805Z,11.85
2023-04-30T09:58:57.167Z,12.05
2023-04-30T10:00:59.722Z,12.45
2023-04-30T10:03:08.626Z,11.85
2023-04-30T10:05:11.738Z,10.82
2023-04-30T10:07:21.582Z,10.35
2023-04-30T10:09:28.087Z,12.05
2023-04-30T10:11:34.832Z,12.57
2023-04-30T10:13:56.987Z,12.30
2023-04-30T10:16:04.566Z,11.65
2023-04-30T10:18:09.660Z,11.85
2023-04-30T10:20:12.933Z,11.95
2023-04-30T10:22:14.596Z,11.50
2023-04-30T10:24:19.959Z,11.88
2023-04-30T10:26:26.693Z,12.40
2023-04-30T10:28:34.215Z,12.50
2023-04-30T10:30:36.260Z,12.32
2023-04-30T10:32:41.703Z,12.68
2023-04-30T10:35:01.010Z,11.90
2023-04-30T10:37:07.694Z,12.90
2023-04-30T10:39:13.847Z,13.05
2023-04-30T10:41:17.521Z,12.20
2023-04-30T10:43:23.775Z,13.38
2023-04-30T10:45:37.935Z,12.40
2023-04-30T10:49:48.346Z,13.80
2023-04-30T10:51:54.974Z,15.27
2023-04-30T10:53:56.555Z,14.55
2023-04-30T10:58:24.973Z,16.10
2023-04-30T11:00:30.097Z,17.98
2023-04-30T11:02:43.697Z,16.00
2023-04-30T11:05:06.531Z,17.50
2023-04-30T11:07:11.589Z,17.10
2023-04-30T11:09:13.082Z,18.38
2023-04-30T11:11:23.817Z,18.58
2023-04-30T11:13:26.543Z,19.52
2023-04-30T11:15:47.505Z,17.25
2023-04-30T11:17:51.970Z,18.67
2023-04-30T11:19:54.610Z,18.85
2023-04-30T11:22:15.722Z,21.95
2023-04-30T11:24:51.599Z,20.77
2023-04-30T11:27:13.053Z,20.17
2023-04-30T11:29:17.720Z,24.75
2023-04-30T11:31:22.163Z,25.70
2023-04-30T11:33:27.182Z,23.83
2023-04-30T11:35:32.226Z,22.88
2023-04-30T11:37:35.240Z,23.48
2023-04-30T11:39:39.984Z,24.92
2023-04-30T11:41:44.366Z,23.15
2023-04-30T11:43:45.817Z,25.77
2023-04-30T11:46:05.136Z,23.40
2023-04-30T11:48:06.628Z,24.27
2023-04-30T11:50:09.404Z,26.08
2023-04-30T11:52:13.760Z,22.90
2023-04-30T11:54:16.008Z,24.08
2023-04-30T11:56:25.733Z,24.60
2023-04-30T11:58:33.555Z,23.60
2023-04-30T12:00:53.670Z,21.50
2023-04-30T12:02:55.947Z,22.23
2023-04-30T12:04:58.879Z,23.30
2023-04-30T12:07:03.389Z,22.35
2023-04-30T12:09:09.218Z,22.75
2023-04-30T12:11:20.772Z,20.90
2023-04-30T12:13:22.199Z,22.77
2023-04-30T12:15:26.875Z,22.13
2023-04-30T12:17:32.808Z,20.48
2023-04-30T12:19:34.586Z,21.88
2023-04-30T12:21:36.597Z,22.13
2023-04-30T12:23:41.428Z,22.83
2023-04-30T12:25:45.841Z,21.05
2023-04-30T12:27:48.543Z,20.58
2023-04-30T12:29:50.869Z,20.52
2023-04-30T12:32:10.908Z,21.73
2023-04-30T12:34:33.710Z,22.27
2023-04-30T12:36:36.923Z,22.83
2023-04-30T12:38:44.103Z,22.40
2023-04-30T12:40:49.058Z,22.58
2023-04-30T12:42:51.647Z,20.90
2023-04-30T12:44:57.714Z,21.27
2023-04-30T12:47:01.128Z,19.98
2023-04-30T12:49:08.879Z,21.67
2023-04-30T12:53:30.021Z,21.65
2023-04-30T12:55:42.311Z,21.17
2023-04-30T12:58:09.512Z,20.17
2023-04-30T13:00:13.983Z,16.92
2023-04-30T13:02:20.328Z,18.50
2023-04-30T13:04:24.626Z,16.98
2023-04-30T13:06:31.264Z,17.88
2023-04-30T13:10:49.410Z,12.95
2023-04-30T13:12:54.965Z,14.13
2023-04-30T13:15:01.286Z,13.45
2023-04-30T13:17:10.511Z,12.55
2023-04-30T13:19:17.102Z,11.93
2023-04-30T13:21:21.538Z,12.70
2023-04-30T13:23:25.183Z,11.77
2023-04-30T13:25:29.930Z,12.27
2023-04-30T13:27:31.436Z,12.00
2023-04-30T13:29:33.128Z,11.68
2023-04-30T13:31:37.517Z,11.27
2023-04-30T13:33:42.237Z,12.15
2023-04-30T13:35:44.033Z,11.90
2023-04-30T13:38:05.785Z,11.65
2023-04-30T13:40:08.150Z,12.52
2023-04-30T13:42:09.574Z,11.43
2023-04-30T13:44:13.969Z,10.85
2023-04-30T13:46:18.719Z,11.18
2023-04-30T13:48:23.143Z,9.95
2023-04-30T13:50:27.321Z,10.50
2023-04-30T13:52:28.948Z,10.65
2023-04-30T13:54:30.350Z,9.90
2023-04-30T13:56:32.272Z,9.65
2023-04-30T13:58:33.721Z,10.02
2023-04-30T14:00:35.389Z,10.23
2023-04-30T14:02:42.600Z,10.38
2023-04-30T14:04:54.700Z,10.52
2023-04-30T14:07:03.086Z,11.07
2023-04-30T14:09:23.550Z,9.85
2023-04-30T14:11:30.843Z,9.40
2023-04-30T14:13:32.267Z,8.75
2023-04-30T14:15:34.104Z,7.85
2023-04-30T14:17:41.740Z,8.40
2023-04-30T14:19:46.211Z,8.40
2023-04-30T14:21:50.215Z,8.40
2023-04-30T14:23:57.400Z,8.30
2023-04-30T14:25:59.178Z,8.90
2023-04-30T14:28:03.333Z,8.68
2023-04-30T14:30:07.897Z,7.80
2023-04-30T14:32:15.524Z,8.23
2023-04-30T14:34:17.387Z,8.40
2023-04-30T14:36:18.824Z,8.02
2023-04-30T14:38:20.856Z,6.88
2023-04-30T14:40:22.316Z,8.30
2023-04-30T14:42:23.727Z,9.50
2023-04-30T14:44:28.188Z,8.18
2023-04-30T14:46:33.693Z,8.80
2023-04-30T14:48:36.691Z,8.73
2023-04-30T14:50:38.307Z,10.07
2023-04-30T14:52:42.369Z,8.90
2023-04-30T14:54:44.305Z,8.15
2023-04-30T14:56:49.084Z,7.85
2023-04-30T14:58:50.597Z,8.27
2023-04-30T15:00:55.029Z,7.90
2023-04-30T15:02:59.332Z,7.93
2023-04-30T15:05:07.396Z,7.80
2023-04-30T15:07:27.883Z,8.60
2023-04-30T15:09:32.103Z,8.63
2023-04-30T15:11:33.588Z,8.40
2023-04-30T15:13:35.424Z,8.70
2023-04-30T15:15:39.884Z,9.55
2023-04-30T15:17:41.513Z,8.18
2023-04-30T15:19:46.115Z,7.75
2023-04-30T15:21:49.143Z,8.25
2023-04-30T15:23:53.503Z,8.45
2023-04-30T15:25:55.277Z,8.48
2023-04-30T15:27:59.729Z,8.20
2023-04-30T15:30:01.177Z,7.55
2023-04-30T15:32:02.697Z,8.90
2023-04-30T15:34:04.125Z,7.18
2023-04-30T15:36:09.858Z,7.88
2023-04-30T15:38:14.231Z,7.75
2023-04-30T15:40:18.629Z,8.05
2023-04-30T15:42:22.647Z,8.63
2023-04-30T15:44:24.296Z,7.60
2023-04-30T15:46:26.889Z,7.53
2023-04-30T15:48:44.529Z,7.95
2023-04-30T15:50:50.622Z,7.32
2023-04-30T15:52:54.730Z,7.70
2023-04-30T15:54:58.981Z,7.95
2023-04-30T15:57:06.780Z,8.15
2023-04-30T15:59:12.551Z,7.60
2023-04-30T16:01:19.612Z,8.77
2023-04-30T16:03:24.896Z,7.57
2023-04-30T16:05:29.301Z,7.25
2023-04-30T16:07:33.165Z,7.60
2023-04-30T16:09:55.881Z,7.82
2023-04-30T16:12:02.636Z,6.95
2023-04-30T16:14:06.574Z,8.48
2023-04-30T16:16:10.198Z,7.15
2023-04-30T16:18:14.130Z,7.15
2023-04-30T16:20:21.517Z,7.97
2023-04-30T16:22:25.653Z,7.78
2023-04-30T16:24:32.445Z,9.38
2023-04-30T16:26:36.440Z,10.02
2023-04-30T16:28:40.739Z,8.43
2023-04-30T16:30:47.181Z,8.48
2023-04-30T16:32:49.408Z,7.88
2023-04-30T16:34:51.443Z,8.35
2023-04-30T16:36:52.849Z,8.13
2023-04-30T16:38:54.510Z,7.93
2023-04-30T16:40:59.453Z,7.43
2023-04-30T16:43:00.888Z,7.50
2023-04-30T16:45:05.419Z,7.38
2023-04-30T16:47:09.575Z,7.88
2023-04-30T16:49:13.991Z,7.15
2023-04-30T16:51:15.490Z,6.70
2023-04-30T16:53:17.019Z,6.68
2023-04-30T16:55:21.165Z,6.50
2023-04-30T16:57:25.904Z,6.45
2023-04-30T16:59:46.844Z,5.95
2023-04-30T17:01:51.460Z,5.65
2023-04-30T17:03:52.978Z,5.20
2023-04-30T17:05:54.572Z,4.75
2023-04-30T17:07:59.094Z,6.75
2023-04-30T17:10:19.647Z,5.93
2023-04-30T17:12:21.387Z,5.63
2023-04-30T17:14:22.975Z,5.55
2023-04-30T17:16:27.525Z,5.75
2023-04-30T17:18:32.140Z,5.93
2023-04-30T17:20:33.678Z,5.50
2023-04-30T17:22:35.608Z,5.68
2023-04-30T17:24:37.348Z,5.43
2023-04-30T17:26:38.797Z,5.00
2023-04-30T17:28:40.189Z,5.03
2023-04-30T17:32:49.122Z,4.20
2023-04-30T17:34:50.636Z,5.03
2023-04-30T17:36:52.036Z,5.10
2023-04-30T17:38:53.719Z,4.22
2023-04-30T17:40:57.987Z,4.90
2023-04-30T17:43:02.345Z,4.20
2023-04-30T17:45:07.102Z,4.50
2023-04-30T17:47:08.587Z,4.97
2023-04-30T17:49:28.659Z,4.72
2023-04-30T17:51:33.208Z,4.20
2023-04-30T17:53:37.883Z,4.95
2023-04-30T17:55:42.327Z,4.38
2023-04-30T17:57:44.239Z,5.38
2023-04-30T17:59:45.862Z,4.90
2023-04-30T18:01:47.398Z,5.40
2023-04-30T18:03:52.398Z,5.05
2023-04-30T18:05:53.921Z,5.10
2023-04-30T18:09:59.677Z,7.03
2023-04-30T18:12:01.366Z,6.70
2023-04-30T18:14:06.121Z,6.70
2023-04-30T18:16:08.237Z,6.30
2023-04-30T18:18:10.145Z,6.75
2023-04-30T18:20:14.675Z,6.10
2023-04-30T18:22:19.228Z,6.30
2023-04-30T18:24:27.851Z,6.45
2023-04-30T18:26:31.884Z,8.95
2023-04-30T18:28:52.154Z,7.72
2023-04-30T18:30:53.669Z,7.90
2023-04-30T18:32:58.151Z,8.95
2023-04-30T18:34:59.727Z,8.93
2023-04-30T18:37:04.065Z,8.00
2023-04-30T18:39:09.102Z,7.53
2023-04-30T18:41:29.302Z,8.73
2023-04-30T18:43:30.807Z,8.05
2023-04-30T18:45:35.230Z,8.65
2023-04-30T18:47:55.874Z,8.48
2023-04-30T18:50:17.926Z,8.68
2023-04-30T18:52:22.937Z,8.85
2023-04-30T18:54:27.159Z,8.52
2023-04-30T18:56:29.122Z,9.18
2023-04-30T18:58:33.692Z,11.23
2023-04-30T19:00:37.321Z,10.15
2023-04-30T19:02:43.085Z,10.82
2023-04-30T19:04:47.758Z,11.93
2023-04-30T19:06:55.638Z,11.38
2023-04-30T19:09:02.383Z,11.93
2023-04-30T19:11:09.938Z,10.70
2023-04-30T19:13:16.840Z,12.88
2023-04-30T19:15:20.800Z,12.50
2023-04-30T19:17:23.964Z,12.15
2023-04-30T19:19:26.242Z,12.98
2023-04-30T19:21:29.862Z,12.45
2023-04-30T19:23:35.681Z,14.30
2023-04-30T19:25:40.113Z,14.80
2023-04-30T19:27:41.709Z,14.55
2023-04-30T19:29:46.556Z,15.15
2023-04-30T19:31:48.231Z,15.00
2023-04-30T19:33:52.509Z,16.35
2023-04-30T19:35:57.808Z,15.30
2023-04-30T19:37:59.424Z,15.70
2023-04-30T19:40:07.248Z,18.10
2023-04-30T19:42:08.883Z,17.83
2023-04-30T19:44:13.439Z,17.38
2023-04-30T19:46:15.995Z,19.33
2023-04-30T19:48:17.857Z,19.10
2023-04-30T19:50:22.137Z,19.60
2023-04-30T19:52:23.677Z,20.35
2023-04-30T19:54:27.996Z,19.15
2023-04-30T19:56:29.737Z,17.88
2023-04-30T19:58:31.381Z,19.15
2023-04-30T20:00:36.539Z,20.45
2023-04-30T20:02:41.136Z,20.92
2023-04-30T20:04:42.672Z,20.85
2023-04-30T20:06:48.103Z,21.35
2023-04-30T20:08:52.718Z,21.02
2023-04-30T20:10:54.865Z,22.23
2023-04-30T20:12:58.845Z,22.73
2023-04-30T20:15:01.129Z,23.30
2023-04-30T20:17:06.539Z,23.95
2023-04-30T20:19:13.114Z,23.92
2023-04-30T20:21:20.423Z,23.05
2023-04-30T20:23:24.862Z,25.38
2023-04-30T20:25:29.582Z,24.33
2023-04-30T20:27:36.457Z,23.77
2023-04-30T20:31:41.660Z,30.58
2023-04-30T20:33:43.349Z,29.77
2023-04-30T20:35:48.324Z,29.77
2023-04-30T20:37:55.876Z,26.60
2023-04-30T20:39:57.590Z,27.77
2023-04-30T20:42:02.309Z,26.27
2023-04-30T20:44:06.846Z,28.15
2023-04-30T20:46:08.369Z,27.55
2023-04-30T20:48:12.763Z,28.33
2023-04-30T20:50:17.037Z,28.35
2023-04-30T20:52:21.376Z,28.40
2023-04-30T20:54:25.795Z,29.45
2023-04-30T20:58:34.702Z,28.35
2023-04-30T21:00:39.106Z,28.58
2023-04-30T21:02:40.998Z,29.38
2023-04-30T21:04:45.346Z,30.17
2023-04-30T21:06:49.575Z,30.13
2023-04-30T21:08:51.093Z,29.77
2023-04-30T21:10:55.391Z,30.67
2023-04-30T21:12:59.728Z,29.42
2023-04-30T21:15:04.487Z,29.23
2023-04-30T21:17:07.237Z,30.58
2023-04-30T21:19:08.787Z,31.73
2023-04-30T21:23:14.635Z,31.30
2023-04-30T21:25:16.192Z,31.02
2023-04-30T21:27:20.621Z,31.13
2023-04-30T21:29:22.300Z,31.80
2023-04-30T21:31:23.823Z,32.78
2023-04-30T21:33:25.401Z,32.03
2023-04-30T21:35:29.758Z,30.23
2023-04-30T21:37:33.919Z,38.38
2023-04-30T21:39:35.445Z,29.40
2023-04-30T21:43:43.948Z,30.83
2023-04-30T21:46:03.962Z,29.23
2023-04-30T21:48:05.941Z,31.42
2023-04-30T21:50:07.917Z,29.27
2023-04-30T21:52:09.379Z,32.10
2023-04-30T21:54:13.787Z,28.42
2023-04-30T21:56:20.299Z,30.10
2023-04-30T21:58:22.984Z,29.67
2023-04-30T22:00:24.425Z,30.17
2023-04-30T22:02:29.732Z,27.70
2023-04-30T22:04:36.994Z,28.55
2023-04-30T22:06:41.514Z,29.45
2023-04-30T22:08:46.227Z,28.67
2023-04-30T22:10:55.336Z,29.55
2023-04-30T22:12:58.935Z,30.60
2023-04-30T22:15:06.607Z,28.95
2023-04-30T22:17:11.604Z,30.35
2023-04-30T22:19:14.999Z,30.23
2023-04-30T22:21:19.274Z,30.55
2023-04-30T22:23:23.771Z,28.83
2023-04-30T22:27:31.199Z,28.25
2023-04-30T22:29:35.153Z,29.33
2023-04-30T22:31:38.697Z,29.88
2023-04-30T22:33:40.546Z,28.63
2023-04-30T22:35:42.642Z,32.20
2023-04-30T22:37:46.682Z,31.95
2023-04-30T22:39:50.479Z,29.23
2023-04-30T22:41:55.140Z,28.98
2023-04-30T22:43:58.679Z,30.52
2023-04-30T22:46:03.130Z,29.40
2023-04-30T22:48:10.694Z,30.13
2023-04-30T22:50:12.625Z,29.67
2023-04-30T22:52:22.236Z,29.02
2023-04-30T22:54:31.983Z,30.48
2023-04-30T22:56:41.182Z,30.95
2023-04-30T22:58:42.634Z,28.00
2023-04-30T23:00:45.811Z,30.73
2023-04-30T23:02:49.806Z,29.80
2023-04-30T23:05:12.928Z,31.02
2023-04-30T23:07:18.129Z,30.35
2023-04-30T23:09:22.614Z,29.83
2023-04-30T23:13:28.390Z,30.58
2023-04-30T23:15:29.841Z,30.60
2023-04-30T23:17:32.060Z,29.52
2023-04-30T23:19:34.077Z,30.77
2023-04-30T23:21:35.986Z,34.17
2023-04-30T23:23:40.106Z,31.20
2023-04-30T23:25:41.736Z,31.65
2023-04-30T23:27:44.060Z,32.45
2023-04-30T23:29:45.666Z,31.88
2023-04-30T23:32:05.969Z,31.67
2023-04-30T23:34:07.745Z,31.70
2023-04-30T23:36:09.215Z,32.28
2023-04-30T23:38:11.471Z,31.20
2023-04-30T23:40:13.183Z,30.42
2023-04-30T23:42:17.214Z,33.15
2023-04-30T23:46:23.325Z,32.85
2023-04-30T23:48:27.636Z,32.47
2023-04-30T23:50:29.186Z,34.55
2023-04-30T23:52:33.539Z,33.97
2023-04-30T23:54:37.815Z,34.45
2023-04-30T23:56:39.205Z,34.67
2023-04-30T23:58:44.158Z,34.03
